<?xml version="1.0" encoding="UTF-8" standalone="no" ?>
<gpx xmlns="http://www.topografix.com/GPX/1/1" xmlns:xsi="http://www.w3.org/2001/XMLSchema-instance" xsi:schemaLocation="http://www.topografix.com/GPX/1/1 http://www.topografix.com/GPX/1/1/gpx.xsd" version="1.1" creator="VisuGPX - https://www.visugpx.com">
  <metadata>
    <name>46.Les Junies</name>
    <desc><![CDATA[Randonnée du 13/04/2017,animée par Bernard 12.5Km D340m]]></desc>
  </metadata>
  <trk>
    <name><![CDATA[OR-7255438--Junies (Les):les junies du 12-04-2017]]></name>
    <trkseg>
      <trkpt lat="44.5377" lon="1.23551">
        <ele>121</ele>
        <time>2017-04-10T10:59:03Z</time>
      </trkpt>
      <trkpt lat="44.53776" lon="1.23543">
        <ele>121</ele>
        <time>2017-04-10T11:01:03Z</time>
      </trkpt>
      <trkpt lat="44.53781" lon="1.23539">
        <ele>120</ele>
        <time>2017-04-10T11:03:03Z</time>
      </trkpt>
      <trkpt lat="44.53793" lon="1.23538">
        <ele>120</ele>
        <time>2017-04-10T11:05:03Z</time>
      </trkpt>
      <trkpt lat="44.53806" lon="1.23538">
        <ele>121</ele>
        <time>2017-04-10T11:07:03Z</time>
      </trkpt>
      <trkpt lat="44.53813" lon="1.23544">
        <ele>121</ele>
        <time>2017-04-10T11:09:03Z</time>
      </trkpt>
      <trkpt lat="44.53826" lon="1.23545">
        <ele>122</ele>
        <time>2017-04-10T11:11:03Z</time>
      </trkpt>
      <trkpt lat="44.53831" lon="1.23547">
        <ele>122</ele>
        <time>2017-04-10T11:13:03Z</time>
      </trkpt>
      <trkpt lat="44.53833" lon="1.23551">
        <ele>123</ele>
        <time>2017-04-10T11:15:03Z</time>
      </trkpt>
      <trkpt lat="44.53834" lon="1.23561">
        <ele>124</ele>
        <time>2017-04-10T11:17:03Z</time>
      </trkpt>
      <trkpt lat="44.53832" lon="1.23576">
        <ele>125</ele>
        <time>2017-04-10T11:19:03Z</time>
      </trkpt>
      <trkpt lat="44.53827" lon="1.23591">
        <ele>127</ele>
        <time>2017-04-10T11:21:03Z</time>
      </trkpt>
      <trkpt lat="44.53818" lon="1.23602">
        <ele>129</ele>
        <time>2017-04-10T11:23:03Z</time>
      </trkpt>
      <trkpt lat="44.53814" lon="1.23619">
        <ele>132</ele>
        <time>2017-04-10T11:25:03Z</time>
      </trkpt>
      <trkpt lat="44.5381" lon="1.23624">
        <ele>132</ele>
        <time>2017-04-10T11:27:03Z</time>
      </trkpt>
      <trkpt lat="44.53796" lon="1.23634">
        <ele>133</ele>
        <time>2017-04-10T11:29:03Z</time>
      </trkpt>
      <trkpt lat="44.53784" lon="1.23663">
        <ele>136</ele>
        <time>2017-04-10T11:31:03Z</time>
      </trkpt>
      <trkpt lat="44.53771" lon="1.23715">
        <ele>143</ele>
        <time>2017-04-10T11:33:03Z</time>
      </trkpt>
      <trkpt lat="44.53759" lon="1.23802">
        <ele>155</ele>
        <time>2017-04-10T11:35:03Z</time>
      </trkpt>
      <trkpt lat="44.53753" lon="1.23854">
        <ele>163</ele>
        <time>2017-04-10T11:37:03Z</time>
      </trkpt>
      <trkpt lat="44.53737" lon="1.23898">
        <ele>170</ele>
        <time>2017-04-10T11:39:03Z</time>
      </trkpt>
      <trkpt lat="44.53718" lon="1.23929">
        <ele>173</ele>
        <time>2017-04-10T11:41:03Z</time>
      </trkpt>
      <trkpt lat="44.53706" lon="1.23957">
        <ele>174</ele>
        <time>2017-04-10T11:43:03Z</time>
      </trkpt>
      <trkpt lat="44.53705" lon="1.23971">
        <ele>175</ele>
        <time>2017-04-10T11:45:03Z</time>
      </trkpt>
      <trkpt lat="44.53706" lon="1.23993">
        <ele>176</ele>
        <time>2017-04-10T11:47:03Z</time>
      </trkpt>
      <trkpt lat="44.53721" lon="1.2405">
        <ele>173</ele>
        <time>2017-04-10T11:49:03Z</time>
      </trkpt>
      <trkpt lat="44.53734" lon="1.24075">
        <ele>172</ele>
        <time>2017-04-10T11:51:03Z</time>
      </trkpt>
      <trkpt lat="44.53767" lon="1.24102">
        <ele>170</ele>
        <time>2017-04-10T11:53:03Z</time>
      </trkpt>
      <trkpt lat="44.53792" lon="1.24152">
        <ele>169</ele>
        <time>2017-04-10T11:55:03Z</time>
      </trkpt>
      <trkpt lat="44.5382" lon="1.24198">
        <ele>171</ele>
        <time>2017-04-10T11:57:03Z</time>
      </trkpt>
      <trkpt lat="44.53831" lon="1.24204">
        <ele>172</ele>
        <time>2017-04-10T11:59:03Z</time>
      </trkpt>
      <trkpt lat="44.53898" lon="1.24273">
        <ele>179</ele>
        <time>2017-04-10T12:01:03Z</time>
      </trkpt>
      <trkpt lat="44.53951" lon="1.24343">
        <ele>180</ele>
        <time>2017-04-10T12:03:03Z</time>
      </trkpt>
      <trkpt lat="44.53987" lon="1.24407">
        <ele>184</ele>
        <time>2017-04-10T12:05:03Z</time>
      </trkpt>
      <trkpt lat="44.54015" lon="1.24463">
        <ele>185</ele>
        <time>2017-04-10T12:07:03Z</time>
      </trkpt>
      <trkpt lat="44.54033" lon="1.24487">
        <ele>185</ele>
        <time>2017-04-10T12:09:03Z</time>
      </trkpt>
      <trkpt lat="44.54068" lon="1.24506">
        <ele>186</ele>
        <time>2017-04-10T12:11:03Z</time>
      </trkpt>
      <trkpt lat="44.54112" lon="1.24511">
        <ele>188</ele>
        <time>2017-04-10T12:13:03Z</time>
      </trkpt>
      <trkpt lat="44.54146" lon="1.24506">
        <ele>188</ele>
        <time>2017-04-10T12:15:03Z</time>
      </trkpt>
      <trkpt lat="44.54191" lon="1.24488">
        <ele>186</ele>
        <time>2017-04-10T12:17:03Z</time>
      </trkpt>
      <trkpt lat="44.54247" lon="1.24478">
        <ele>185</ele>
        <time>2017-04-10T12:19:03Z</time>
      </trkpt>
      <trkpt lat="44.54262" lon="1.2447">
        <ele>183</ele>
        <time>2017-04-10T12:21:03Z</time>
      </trkpt>
      <trkpt lat="44.54285" lon="1.2445">
        <ele>179</ele>
        <time>2017-04-10T12:23:03Z</time>
      </trkpt>
      <trkpt lat="44.54312" lon="1.24443">
        <ele>178</ele>
        <time>2017-04-10T12:25:03Z</time>
      </trkpt>
      <trkpt lat="44.54347" lon="1.24421">
        <ele>176</ele>
        <time>2017-04-10T12:27:03Z</time>
      </trkpt>
      <trkpt lat="44.54392" lon="1.24382">
        <ele>177</ele>
        <time>2017-04-10T12:29:03Z</time>
      </trkpt>
      <trkpt lat="44.54409" lon="1.24374">
        <ele>178</ele>
        <time>2017-04-10T12:31:03Z</time>
      </trkpt>
      <trkpt lat="44.54471" lon="1.24358">
        <ele>177</ele>
        <time>2017-04-10T12:33:03Z</time>
      </trkpt>
      <trkpt lat="44.54529" lon="1.24346">
        <ele>174</ele>
        <time>2017-04-10T12:35:03Z</time>
      </trkpt>
      <trkpt lat="44.54557" lon="1.2433">
        <ele>171</ele>
        <time>2017-04-10T12:37:03Z</time>
      </trkpt>
      <trkpt lat="44.54576" lon="1.24312">
        <ele>169</ele>
        <time>2017-04-10T12:39:03Z</time>
      </trkpt>
      <trkpt lat="44.54588" lon="1.24284">
        <ele>165</ele>
        <time>2017-04-10T12:41:03Z</time>
      </trkpt>
      <trkpt lat="44.54608" lon="1.24268">
        <ele>163</ele>
        <time>2017-04-10T12:43:03Z</time>
      </trkpt>
      <trkpt lat="44.5463" lon="1.24239">
        <ele>161</ele>
        <time>2017-04-10T12:45:03Z</time>
      </trkpt>
      <trkpt lat="44.5465" lon="1.24202">
        <ele>161</ele>
        <time>2017-04-10T12:47:03Z</time>
      </trkpt>
      <trkpt lat="44.54656" lon="1.24193">
        <ele>161</ele>
        <time>2017-04-10T12:49:03Z</time>
      </trkpt>
      <trkpt lat="44.54664" lon="1.24185">
        <ele>161</ele>
        <time>2017-04-10T12:51:03Z</time>
      </trkpt>
      <trkpt lat="44.54669" lon="1.24186">
        <ele>161</ele>
        <time>2017-04-10T12:53:03Z</time>
      </trkpt>
      <trkpt lat="44.54695" lon="1.24237">
        <ele>157</ele>
        <time>2017-04-10T12:55:03Z</time>
      </trkpt>
      <trkpt lat="44.54712" lon="1.24269">
        <ele>155</ele>
        <time>2017-04-10T12:57:03Z</time>
      </trkpt>
      <trkpt lat="44.54713" lon="1.24284">
        <ele>155</ele>
        <time>2017-04-10T12:59:03Z</time>
      </trkpt>
      <trkpt lat="44.54713" lon="1.24308">
        <ele>154</ele>
        <time>2017-04-10T13:01:03Z</time>
      </trkpt>
      <trkpt lat="44.54709" lon="1.24365">
        <ele>153</ele>
        <time>2017-04-10T13:03:03Z</time>
      </trkpt>
      <trkpt lat="44.54711" lon="1.24403">
        <ele>153</ele>
        <time>2017-04-10T13:05:03Z</time>
      </trkpt>
      <trkpt lat="44.54717" lon="1.24439">
        <ele>152</ele>
        <time>2017-04-10T13:07:03Z</time>
      </trkpt>
      <trkpt lat="44.54722" lon="1.24451">
        <ele>152</ele>
        <time>2017-04-10T13:09:03Z</time>
      </trkpt>
      <trkpt lat="44.54728" lon="1.24459">
        <ele>151</ele>
        <time>2017-04-10T13:11:03Z</time>
      </trkpt>
      <trkpt lat="44.54733" lon="1.2446">
        <ele>151</ele>
        <time>2017-04-10T13:13:03Z</time>
      </trkpt>
      <trkpt lat="44.5477" lon="1.24447">
        <ele>148</ele>
        <time>2017-04-10T13:15:03Z</time>
      </trkpt>
      <trkpt lat="44.54801" lon="1.2444">
        <ele>145</ele>
        <time>2017-04-10T13:17:03Z</time>
      </trkpt>
      <trkpt lat="44.54809" lon="1.24441">
        <ele>145</ele>
        <time>2017-04-10T13:19:03Z</time>
      </trkpt>
      <trkpt lat="44.54822" lon="1.24458">
        <ele>144</ele>
        <time>2017-04-10T13:21:03Z</time>
      </trkpt>
      <trkpt lat="44.54843" lon="1.24482">
        <ele>143</ele>
        <time>2017-04-10T13:23:03Z</time>
      </trkpt>
      <trkpt lat="44.54858" lon="1.24491">
        <ele>143</ele>
        <time>2017-04-10T13:25:03Z</time>
      </trkpt>
      <trkpt lat="44.54864" lon="1.24483">
        <ele>143</ele>
        <time>2017-04-10T13:27:03Z</time>
      </trkpt>
      <trkpt lat="44.54878" lon="1.2442">
        <ele>142</ele>
        <time>2017-04-10T13:29:03Z</time>
      </trkpt>
      <trkpt lat="44.5488" lon="1.24402">
        <ele>142</ele>
        <time>2017-04-10T13:31:03Z</time>
      </trkpt>
      <trkpt lat="44.54881" lon="1.24365">
        <ele>143</ele>
        <time>2017-04-10T13:33:03Z</time>
      </trkpt>
      <trkpt lat="44.5488" lon="1.24338">
        <ele>143</ele>
        <time>2017-04-10T13:35:03Z</time>
      </trkpt>
      <trkpt lat="44.54873" lon="1.2431">
        <ele>143</ele>
        <time>2017-04-10T13:37:03Z</time>
      </trkpt>
      <trkpt lat="44.54857" lon="1.2425">
        <ele>144</ele>
        <time>2017-04-10T13:39:03Z</time>
      </trkpt>
      <trkpt lat="44.54828" lon="1.24157">
        <ele>145</ele>
        <time>2017-04-10T13:41:03Z</time>
      </trkpt>
      <trkpt lat="44.54816" lon="1.24109">
        <ele>146</ele>
        <time>2017-04-10T13:43:03Z</time>
      </trkpt>
      <trkpt lat="44.548" lon="1.24042">
        <ele>148</ele>
        <time>2017-04-10T13:45:03Z</time>
      </trkpt>
      <trkpt lat="44.54782" lon="1.23959">
        <ele>153</ele>
        <time>2017-04-10T13:47:03Z</time>
      </trkpt>
      <trkpt lat="44.54779" lon="1.23942">
        <ele>154</ele>
        <time>2017-04-10T13:49:03Z</time>
      </trkpt>
      <trkpt lat="44.54778" lon="1.23916">
        <ele>156</ele>
        <time>2017-04-10T13:51:03Z</time>
      </trkpt>
      <trkpt lat="44.54773" lon="1.2388">
        <ele>158</ele>
        <time>2017-04-10T13:53:03Z</time>
      </trkpt>
      <trkpt lat="44.54772" lon="1.23867">
        <ele>159</ele>
        <time>2017-04-10T13:55:03Z</time>
      </trkpt>
      <trkpt lat="44.54784" lon="1.2384">
        <ele>159</ele>
        <time>2017-04-10T13:57:03Z</time>
      </trkpt>
      <trkpt lat="44.54783" lon="1.23826">
        <ele>160</ele>
        <time>2017-04-10T13:59:03Z</time>
      </trkpt>
      <trkpt lat="44.54778" lon="1.23817">
        <ele>160</ele>
        <time>2017-04-10T14:01:03Z</time>
      </trkpt>
      <trkpt lat="44.54765" lon="1.2381">
        <ele>160</ele>
        <time>2017-04-10T14:03:03Z</time>
      </trkpt>
      <trkpt lat="44.54753" lon="1.23806">
        <ele>161</ele>
        <time>2017-04-10T14:05:03Z</time>
      </trkpt>
      <trkpt lat="44.54752" lon="1.23795">
        <ele>161</ele>
        <time>2017-04-10T14:07:03Z</time>
      </trkpt>
      <trkpt lat="44.54753" lon="1.23773">
        <ele>161</ele>
        <time>2017-04-10T14:09:03Z</time>
      </trkpt>
      <trkpt lat="44.54754" lon="1.23753">
        <ele>161</ele>
        <time>2017-04-10T14:11:03Z</time>
      </trkpt>
      <trkpt lat="44.54774" lon="1.23682">
        <ele>162</ele>
        <time>2017-04-10T14:13:03Z</time>
      </trkpt>
      <trkpt lat="44.5479" lon="1.23629">
        <ele>163</ele>
        <time>2017-04-10T14:15:03Z</time>
      </trkpt>
      <trkpt lat="44.5481" lon="1.23568">
        <ele>165</ele>
        <time>2017-04-10T14:17:03Z</time>
      </trkpt>
      <trkpt lat="44.54836" lon="1.2352">
        <ele>164</ele>
        <time>2017-04-10T14:19:03Z</time>
      </trkpt>
      <trkpt lat="44.54841" lon="1.23514">
        <ele>164</ele>
        <time>2017-04-10T14:21:03Z</time>
      </trkpt>
      <trkpt lat="44.54851" lon="1.23514">
        <ele>163</ele>
        <time>2017-04-10T14:23:03Z</time>
      </trkpt>
      <trkpt lat="44.54862" lon="1.23526">
        <ele>161</ele>
        <time>2017-04-10T14:25:03Z</time>
      </trkpt>
      <trkpt lat="44.54876" lon="1.23536">
        <ele>159</ele>
        <time>2017-04-10T14:27:03Z</time>
      </trkpt>
      <trkpt lat="44.54897" lon="1.23554">
        <ele>156</ele>
        <time>2017-04-10T14:29:03Z</time>
      </trkpt>
      <trkpt lat="44.54904" lon="1.23552">
        <ele>155</ele>
        <time>2017-04-10T14:31:03Z</time>
      </trkpt>
      <trkpt lat="44.5491" lon="1.23532">
        <ele>156</ele>
        <time>2017-04-10T14:33:03Z</time>
      </trkpt>
      <trkpt lat="44.54921" lon="1.23513">
        <ele>156</ele>
        <time>2017-04-10T14:35:03Z</time>
      </trkpt>
      <trkpt lat="44.54929" lon="1.23497">
        <ele>155</ele>
        <time>2017-04-10T14:37:03Z</time>
      </trkpt>
      <trkpt lat="44.54941" lon="1.23476">
        <ele>151</ele>
        <time>2017-04-10T14:39:03Z</time>
      </trkpt>
      <trkpt lat="44.54949" lon="1.23462">
        <ele>149</ele>
        <time>2017-04-10T14:41:03Z</time>
      </trkpt>
      <trkpt lat="44.54962" lon="1.2344">
        <ele>144</ele>
        <time>2017-04-10T14:43:03Z</time>
      </trkpt>
      <trkpt lat="44.54983" lon="1.23425">
        <ele>139</ele>
        <time>2017-04-10T14:45:03Z</time>
      </trkpt>
      <trkpt lat="44.54999" lon="1.23416">
        <ele>135</ele>
        <time>2017-04-10T14:47:03Z</time>
      </trkpt>
      <trkpt lat="44.55007" lon="1.23411">
        <ele>134</ele>
        <time>2017-04-10T14:49:03Z</time>
      </trkpt>
      <trkpt lat="44.55009" lon="1.23397">
        <ele>133</ele>
        <time>2017-04-10T14:51:03Z</time>
      </trkpt>
      <trkpt lat="44.55007" lon="1.23392">
        <ele>133</ele>
        <time>2017-04-10T14:53:03Z</time>
      </trkpt>
      <trkpt lat="44.54999" lon="1.23376">
        <ele>132</ele>
        <time>2017-04-10T14:55:03Z</time>
      </trkpt>
      <trkpt lat="44.54988" lon="1.23357">
        <ele>133</ele>
        <time>2017-04-10T14:57:03Z</time>
      </trkpt>
      <trkpt lat="44.54969" lon="1.23332">
        <ele>133</ele>
        <time>2017-04-10T14:59:03Z</time>
      </trkpt>
      <trkpt lat="44.54981" lon="1.23319">
        <ele>130</ele>
        <time>2017-04-10T15:01:03Z</time>
      </trkpt>
      <trkpt lat="44.54968" lon="1.23282">
        <ele>128</ele>
        <time>2017-04-10T15:03:03Z</time>
      </trkpt>
      <trkpt lat="44.54958" lon="1.23233">
        <ele>125</ele>
        <time>2017-04-10T15:05:03Z</time>
      </trkpt>
      <trkpt lat="44.54952" lon="1.23216">
        <ele>125</ele>
        <time>2017-04-10T15:07:03Z</time>
      </trkpt>
      <trkpt lat="44.54941" lon="1.23199">
        <ele>124</ele>
        <time>2017-04-10T15:09:03Z</time>
      </trkpt>
      <trkpt lat="44.54869" lon="1.23109">
        <ele>121</ele>
        <time>2017-04-10T15:11:03Z</time>
      </trkpt>
      <trkpt lat="44.54855" lon="1.23087">
        <ele>121</ele>
        <time>2017-04-10T15:13:03Z</time>
      </trkpt>
      <trkpt lat="44.54851" lon="1.23052">
        <ele>121</ele>
        <time>2017-04-10T15:15:03Z</time>
      </trkpt>
      <trkpt lat="44.54825" lon="1.22947">
        <ele>126</ele>
        <time>2017-04-10T15:17:03Z</time>
      </trkpt>
      <trkpt lat="44.54823" lon="1.22925">
        <ele>128</ele>
        <time>2017-04-10T15:19:03Z</time>
      </trkpt>
      <trkpt lat="44.54836" lon="1.22903">
        <ele>132</ele>
        <time>2017-04-10T15:21:03Z</time>
      </trkpt>
      <trkpt lat="44.54837" lon="1.22881">
        <ele>136</ele>
        <time>2017-04-10T15:23:03Z</time>
      </trkpt>
      <trkpt lat="44.54828" lon="1.22828">
        <ele>147</ele>
        <time>2017-04-10T15:25:03Z</time>
      </trkpt>
      <trkpt lat="44.54822" lon="1.22746">
        <ele>163</ele>
        <time>2017-04-10T15:27:03Z</time>
      </trkpt>
      <trkpt lat="44.54823" lon="1.22717">
        <ele>169</ele>
        <time>2017-04-10T15:29:03Z</time>
      </trkpt>
      <trkpt lat="44.5481" lon="1.22694">
        <ele>174</ele>
        <time>2017-04-10T15:31:03Z</time>
      </trkpt>
      <trkpt lat="44.54786" lon="1.22652">
        <ele>181</ele>
        <time>2017-04-10T15:33:03Z</time>
      </trkpt>
      <trkpt lat="44.54785" lon="1.2264">
        <ele>183</ele>
        <time>2017-04-10T15:35:03Z</time>
      </trkpt>
      <trkpt lat="44.5479" lon="1.22607">
        <ele>187</ele>
        <time>2017-04-10T15:37:03Z</time>
      </trkpt>
      <trkpt lat="44.54805" lon="1.22579">
        <ele>190</ele>
        <time>2017-04-10T15:39:03Z</time>
      </trkpt>
      <trkpt lat="44.54845" lon="1.22529">
        <ele>192</ele>
        <time>2017-04-10T15:41:03Z</time>
      </trkpt>
      <trkpt lat="44.54858" lon="1.22506">
        <ele>192</ele>
        <time>2017-04-10T15:43:03Z</time>
      </trkpt>
      <trkpt lat="44.54872" lon="1.22454">
        <ele>197</ele>
        <time>2017-04-10T15:45:03Z</time>
      </trkpt>
      <trkpt lat="44.54871" lon="1.22416">
        <ele>200</ele>
        <time>2017-04-10T15:47:03Z</time>
      </trkpt>
      <trkpt lat="44.54863" lon="1.22393">
        <ele>203</ele>
        <time>2017-04-10T15:49:03Z</time>
      </trkpt>
      <trkpt lat="44.54858" lon="1.22319">
        <ele>211</ele>
        <time>2017-04-10T15:51:03Z</time>
      </trkpt>
      <trkpt lat="44.54846" lon="1.22284">
        <ele>214</ele>
        <time>2017-04-10T15:53:03Z</time>
      </trkpt>
      <trkpt lat="44.54842" lon="1.22267">
        <ele>215</ele>
        <time>2017-04-10T15:55:03Z</time>
      </trkpt>
      <trkpt lat="44.54759" lon="1.22137">
        <ele>228</ele>
        <time>2017-04-10T15:57:03Z</time>
      </trkpt>
      <trkpt lat="44.54702" lon="1.2205">
        <ele>233</ele>
        <time>2017-04-10T15:59:03Z</time>
      </trkpt>
      <trkpt lat="44.54665" lon="1.22001">
        <ele>235</ele>
        <time>2017-04-10T16:01:03Z</time>
      </trkpt>
      <trkpt lat="44.5465" lon="1.21969">
        <ele>236</ele>
        <time>2017-04-10T16:03:03Z</time>
      </trkpt>
      <trkpt lat="44.54636" lon="1.21936">
        <ele>237</ele>
        <time>2017-04-10T16:05:03Z</time>
      </trkpt>
      <trkpt lat="44.5462" lon="1.21872">
        <ele>240</ele>
        <time>2017-04-10T16:07:03Z</time>
      </trkpt>
      <trkpt lat="44.54599" lon="1.21767">
        <ele>242</ele>
        <time>2017-04-10T16:09:03Z</time>
      </trkpt>
      <trkpt lat="44.5459" lon="1.21715">
        <ele>244</ele>
        <time>2017-04-10T16:11:03Z</time>
      </trkpt>
      <trkpt lat="44.54591" lon="1.21703">
        <ele>245</ele>
        <time>2017-04-10T16:13:03Z</time>
      </trkpt>
      <trkpt lat="44.54609" lon="1.21676">
        <ele>246</ele>
        <time>2017-04-10T16:15:03Z</time>
      </trkpt>
      <trkpt lat="44.54655" lon="1.21542">
        <ele>248</ele>
        <time>2017-04-10T16:17:03Z</time>
      </trkpt>
      <trkpt lat="44.54658" lon="1.21534">
        <ele>248</ele>
        <time>2017-04-10T16:19:03Z</time>
      </trkpt>
      <trkpt lat="44.54604" lon="1.21495">
        <ele>245</ele>
        <time>2017-04-10T16:21:03Z</time>
      </trkpt>
      <trkpt lat="44.54571" lon="1.2148">
        <ele>243</ele>
        <time>2017-04-10T16:23:03Z</time>
      </trkpt>
      <trkpt lat="44.54514" lon="1.2146">
        <ele>242</ele>
        <time>2017-04-10T16:25:03Z</time>
      </trkpt>
      <trkpt lat="44.54486" lon="1.2146">
        <ele>241</ele>
        <time>2017-04-10T16:27:03Z</time>
      </trkpt>
      <trkpt lat="44.54429" lon="1.21462">
        <ele>236</ele>
        <time>2017-04-10T16:29:03Z</time>
      </trkpt>
      <trkpt lat="44.54353" lon="1.2145">
        <ele>229</ele>
        <time>2017-04-10T16:31:03Z</time>
      </trkpt>
      <trkpt lat="44.5432" lon="1.21428">
        <ele>228</ele>
        <time>2017-04-10T16:33:03Z</time>
      </trkpt>
      <trkpt lat="44.5431" lon="1.21426">
        <ele>229</ele>
        <time>2017-04-10T16:35:03Z</time>
      </trkpt>
      <trkpt lat="44.54297" lon="1.21432">
        <ele>229</ele>
        <time>2017-04-10T16:37:03Z</time>
      </trkpt>
      <trkpt lat="44.54259" lon="1.21455">
        <ele>229</ele>
        <time>2017-04-10T16:39:03Z</time>
      </trkpt>
      <trkpt lat="44.54249" lon="1.21458">
        <ele>230</ele>
        <time>2017-04-10T16:41:03Z</time>
      </trkpt>
      <trkpt lat="44.54179" lon="1.21452">
        <ele>239</ele>
        <time>2017-04-10T16:43:03Z</time>
      </trkpt>
      <trkpt lat="44.54157" lon="1.21456">
        <ele>241</ele>
        <time>2017-04-10T16:45:03Z</time>
      </trkpt>
      <trkpt lat="44.54146" lon="1.21461">
        <ele>241</ele>
        <time>2017-04-10T16:47:03Z</time>
      </trkpt>
      <trkpt lat="44.54134" lon="1.21465">
        <ele>241</ele>
        <time>2017-04-10T16:49:03Z</time>
      </trkpt>
      <trkpt lat="44.5412" lon="1.21471">
        <ele>242</ele>
        <time>2017-04-10T16:51:03Z</time>
      </trkpt>
      <trkpt lat="44.54071" lon="1.21489">
        <ele>244</ele>
        <time>2017-04-10T16:53:03Z</time>
      </trkpt>
      <trkpt lat="44.54058" lon="1.21505">
        <ele>244</ele>
        <time>2017-04-10T16:55:03Z</time>
      </trkpt>
      <trkpt lat="44.54049" lon="1.21522">
        <ele>245</ele>
        <time>2017-04-10T16:57:03Z</time>
      </trkpt>
      <trkpt lat="44.54037" lon="1.21543">
        <ele>246</ele>
        <time>2017-04-10T16:59:03Z</time>
      </trkpt>
      <trkpt lat="44.54025" lon="1.21564">
        <ele>247</ele>
        <time>2017-04-10T17:01:03Z</time>
      </trkpt>
      <trkpt lat="44.54013" lon="1.21572">
        <ele>248</ele>
        <time>2017-04-10T17:03:03Z</time>
      </trkpt>
      <trkpt lat="44.53985" lon="1.21583">
        <ele>249</ele>
        <time>2017-04-10T17:05:03Z</time>
      </trkpt>
      <trkpt lat="44.53942" lon="1.21585">
        <ele>250</ele>
        <time>2017-04-10T17:07:03Z</time>
      </trkpt>
      <trkpt lat="44.53911" lon="1.21594">
        <ele>250</ele>
        <time>2017-04-10T17:09:03Z</time>
      </trkpt>
      <trkpt lat="44.53862" lon="1.21594">
        <ele>254</ele>
        <time>2017-04-10T17:11:03Z</time>
      </trkpt>
      <trkpt lat="44.53847" lon="1.21601">
        <ele>255</ele>
        <time>2017-04-10T17:13:03Z</time>
      </trkpt>
      <trkpt lat="44.53818" lon="1.21627">
        <ele>257</ele>
        <time>2017-04-10T17:15:03Z</time>
      </trkpt>
      <trkpt lat="44.53798" lon="1.21643">
        <ele>258</ele>
        <time>2017-04-10T17:17:03Z</time>
      </trkpt>
      <trkpt lat="44.53765" lon="1.21664">
        <ele>261</ele>
        <time>2017-04-10T17:19:03Z</time>
      </trkpt>
      <trkpt lat="44.53752" lon="1.21676">
        <ele>261</ele>
        <time>2017-04-10T17:21:03Z</time>
      </trkpt>
      <trkpt lat="44.53717" lon="1.21713">
        <ele>261</ele>
        <time>2017-04-10T17:23:03Z</time>
      </trkpt>
      <trkpt lat="44.5368" lon="1.21738">
        <ele>263</ele>
        <time>2017-04-10T17:25:03Z</time>
      </trkpt>
      <trkpt lat="44.53653" lon="1.21768">
        <ele>264</ele>
        <time>2017-04-10T17:27:03Z</time>
      </trkpt>
      <trkpt lat="44.53629" lon="1.21798">
        <ele>264</ele>
        <time>2017-04-10T17:29:03Z</time>
      </trkpt>
      <trkpt lat="44.53601" lon="1.21845">
        <ele>263</ele>
        <time>2017-04-10T17:31:03Z</time>
      </trkpt>
      <trkpt lat="44.53589" lon="1.21872">
        <ele>263</ele>
        <time>2017-04-10T17:33:03Z</time>
      </trkpt>
      <trkpt lat="44.53574" lon="1.21923">
        <ele>263</ele>
        <time>2017-04-10T17:35:03Z</time>
      </trkpt>
      <trkpt lat="44.53567" lon="1.21933">
        <ele>263</ele>
        <time>2017-04-10T17:37:03Z</time>
      </trkpt>
      <trkpt lat="44.53556" lon="1.21935">
        <ele>263</ele>
        <time>2017-04-10T17:39:03Z</time>
      </trkpt>
      <trkpt lat="44.53539" lon="1.21925">
        <ele>263</ele>
        <time>2017-04-10T17:41:03Z</time>
      </trkpt>
      <trkpt lat="44.53531" lon="1.21917">
        <ele>264</ele>
        <time>2017-04-10T17:43:03Z</time>
      </trkpt>
      <trkpt lat="44.53523" lon="1.21907">
        <ele>264</ele>
        <time>2017-04-10T17:45:03Z</time>
      </trkpt>
      <trkpt lat="44.53518" lon="1.21887">
        <ele>264</ele>
        <time>2017-04-10T17:47:03Z</time>
      </trkpt>
      <trkpt lat="44.53511" lon="1.21867">
        <ele>264</ele>
        <time>2017-04-10T17:49:03Z</time>
      </trkpt>
      <trkpt lat="44.53492" lon="1.21829">
        <ele>264</ele>
        <time>2017-04-10T17:51:03Z</time>
      </trkpt>
      <trkpt lat="44.53464" lon="1.21772">
        <ele>264</ele>
        <time>2017-04-10T17:53:03Z</time>
      </trkpt>
      <trkpt lat="44.53459" lon="1.21741">
        <ele>265</ele>
        <time>2017-04-10T17:55:03Z</time>
      </trkpt>
      <trkpt lat="44.53449" lon="1.21727">
        <ele>265</ele>
        <time>2017-04-10T17:57:03Z</time>
      </trkpt>
      <trkpt lat="44.53388" lon="1.21698">
        <ele>263</ele>
        <time>2017-04-10T17:59:03Z</time>
      </trkpt>
      <trkpt lat="44.53377" lon="1.21696">
        <ele>262</ele>
        <time>2017-04-10T18:01:03Z</time>
      </trkpt>
      <trkpt lat="44.53368" lon="1.21697">
        <ele>262</ele>
        <time>2017-04-10T18:03:03Z</time>
      </trkpt>
      <trkpt lat="44.53354" lon="1.21707">
        <ele>260</ele>
        <time>2017-04-10T18:05:03Z</time>
      </trkpt>
      <trkpt lat="44.53339" lon="1.21706">
        <ele>259</ele>
        <time>2017-04-10T18:07:03Z</time>
      </trkpt>
      <trkpt lat="44.53321" lon="1.21695">
        <ele>259</ele>
        <time>2017-04-10T18:09:03Z</time>
      </trkpt>
      <trkpt lat="44.53289" lon="1.21696">
        <ele>256</ele>
        <time>2017-04-10T18:11:03Z</time>
      </trkpt>
      <trkpt lat="44.53277" lon="1.21703">
        <ele>255</ele>
        <time>2017-04-10T18:13:03Z</time>
      </trkpt>
      <trkpt lat="44.53267" lon="1.21709">
        <ele>253</ele>
        <time>2017-04-10T18:15:03Z</time>
      </trkpt>
      <trkpt lat="44.53249" lon="1.21715">
        <ele>252</ele>
        <time>2017-04-10T18:17:03Z</time>
      </trkpt>
      <trkpt lat="44.53225" lon="1.21719">
        <ele>250</ele>
        <time>2017-04-10T18:19:03Z</time>
      </trkpt>
      <trkpt lat="44.53213" lon="1.21726">
        <ele>249</ele>
        <time>2017-04-10T18:21:03Z</time>
      </trkpt>
      <trkpt lat="44.53199" lon="1.2173">
        <ele>249</ele>
        <time>2017-04-10T18:23:03Z</time>
      </trkpt>
      <trkpt lat="44.53189" lon="1.21735">
        <ele>248</ele>
        <time>2017-04-10T18:25:03Z</time>
      </trkpt>
      <trkpt lat="44.53049" lon="1.21794">
        <ele>250</ele>
        <time>2017-04-10T18:27:03Z</time>
      </trkpt>
      <trkpt lat="44.5294" lon="1.21842">
        <ele>257</ele>
        <time>2017-04-10T18:29:03Z</time>
      </trkpt>
      <trkpt lat="44.52899" lon="1.21856">
        <ele>257</ele>
        <time>2017-04-10T18:31:03Z</time>
      </trkpt>
      <trkpt lat="44.52818" lon="1.21886">
        <ele>257</ele>
        <time>2017-04-10T18:33:03Z</time>
      </trkpt>
      <trkpt lat="44.52759" lon="1.21921">
        <ele>259</ele>
        <time>2017-04-10T18:35:03Z</time>
      </trkpt>
      <trkpt lat="44.52624" lon="1.2199">
        <ele>264</ele>
        <time>2017-04-10T18:37:03Z</time>
      </trkpt>
      <trkpt lat="44.52606" lon="1.22004">
        <ele>264</ele>
        <time>2017-04-10T18:39:03Z</time>
      </trkpt>
      <trkpt lat="44.52544" lon="1.22032">
        <ele>266</ele>
        <time>2017-04-10T18:41:03Z</time>
      </trkpt>
      <trkpt lat="44.52449" lon="1.22069">
        <ele>271</ele>
        <time>2017-04-10T18:43:03Z</time>
      </trkpt>
      <trkpt lat="44.52424" lon="1.22077">
        <ele>274</ele>
        <time>2017-04-10T18:45:03Z</time>
      </trkpt>
      <trkpt lat="44.52409" lon="1.22082">
        <ele>275</ele>
        <time>2017-04-10T18:47:03Z</time>
      </trkpt>
      <trkpt lat="44.52397" lon="1.22088">
        <ele>276</ele>
        <time>2017-04-10T18:49:03Z</time>
      </trkpt>
      <trkpt lat="44.52373" lon="1.22098">
        <ele>276</ele>
        <time>2017-04-10T18:51:03Z</time>
      </trkpt>
      <trkpt lat="44.52366" lon="1.22104">
        <ele>277</ele>
        <time>2017-04-10T18:53:03Z</time>
      </trkpt>
      <trkpt lat="44.5233" lon="1.22117">
        <ele>279</ele>
        <time>2017-04-10T18:55:03Z</time>
      </trkpt>
      <trkpt lat="44.52307" lon="1.22122">
        <ele>281</ele>
        <time>2017-04-10T18:57:03Z</time>
      </trkpt>
      <trkpt lat="44.52286" lon="1.22129">
        <ele>282</ele>
        <time>2017-04-10T18:59:03Z</time>
      </trkpt>
      <trkpt lat="44.52248" lon="1.22131">
        <ele>285</ele>
        <time>2017-04-10T19:01:03Z</time>
      </trkpt>
      <trkpt lat="44.5223" lon="1.2216">
        <ele>285</ele>
        <time>2017-04-10T19:03:03Z</time>
      </trkpt>
      <trkpt lat="44.52216" lon="1.22178">
        <ele>283</ele>
        <time>2017-04-10T19:05:03Z</time>
      </trkpt>
      <trkpt lat="44.52219" lon="1.22202">
        <ele>282</ele>
        <time>2017-04-10T19:07:03Z</time>
      </trkpt>
      <trkpt lat="44.52228" lon="1.2224">
        <ele>279</ele>
        <time>2017-04-10T19:09:03Z</time>
      </trkpt>
      <trkpt lat="44.52232" lon="1.22288">
        <ele>274</ele>
        <time>2017-04-10T19:11:03Z</time>
      </trkpt>
      <trkpt lat="44.52226" lon="1.22322">
        <ele>269</ele>
        <time>2017-04-10T19:13:03Z</time>
      </trkpt>
      <trkpt lat="44.52216" lon="1.22379">
        <ele>259</ele>
        <time>2017-04-10T19:15:03Z</time>
      </trkpt>
      <trkpt lat="44.52229" lon="1.2245">
        <ele>248</ele>
        <time>2017-04-10T19:17:03Z</time>
      </trkpt>
      <trkpt lat="44.52244" lon="1.22547">
        <ele>240</ele>
        <time>2017-04-10T19:19:03Z</time>
      </trkpt>
      <trkpt lat="44.52254" lon="1.22621">
        <ele>237</ele>
        <time>2017-04-10T19:21:03Z</time>
      </trkpt>
      <trkpt lat="44.52265" lon="1.22666">
        <ele>233</ele>
        <time>2017-04-10T19:23:03Z</time>
      </trkpt>
      <trkpt lat="44.52361" lon="1.22685">
        <ele>227</ele>
        <time>2017-04-10T19:25:03Z</time>
      </trkpt>
      <trkpt lat="44.52377" lon="1.22678">
        <ele>227</ele>
        <time>2017-04-10T19:27:03Z</time>
      </trkpt>
      <trkpt lat="44.52398" lon="1.22688">
        <ele>224</ele>
        <time>2017-04-10T19:29:03Z</time>
      </trkpt>
      <trkpt lat="44.52408" lon="1.22691">
        <ele>222</ele>
        <time>2017-04-10T19:31:03Z</time>
      </trkpt>
      <trkpt lat="44.52425" lon="1.22697">
        <ele>219</ele>
        <time>2017-04-10T19:33:03Z</time>
      </trkpt>
      <trkpt lat="44.5245" lon="1.22718">
        <ele>213</ele>
        <time>2017-04-10T19:35:03Z</time>
      </trkpt>
      <trkpt lat="44.52482" lon="1.22754">
        <ele>207</ele>
        <time>2017-04-10T19:37:03Z</time>
      </trkpt>
      <trkpt lat="44.52519" lon="1.22823">
        <ele>192</ele>
        <time>2017-04-10T19:39:03Z</time>
      </trkpt>
      <trkpt lat="44.52546" lon="1.22843">
        <ele>186</ele>
        <time>2017-04-10T19:41:03Z</time>
      </trkpt>
      <trkpt lat="44.52548" lon="1.22865">
        <ele>181</ele>
        <time>2017-04-10T19:43:03Z</time>
      </trkpt>
      <trkpt lat="44.52505" lon="1.22962">
        <ele>161</ele>
        <time>2017-04-10T19:45:03Z</time>
      </trkpt>
      <trkpt lat="44.52535" lon="1.22983">
        <ele>155</ele>
        <time>2017-04-10T19:47:03Z</time>
      </trkpt>
      <trkpt lat="44.52568" lon="1.22998">
        <ele>150</ele>
        <time>2017-04-10T19:49:03Z</time>
      </trkpt>
      <trkpt lat="44.52584" lon="1.23014">
        <ele>146</ele>
        <time>2017-04-10T19:51:03Z</time>
      </trkpt>
      <trkpt lat="44.52582" lon="1.23037">
        <ele>141</ele>
        <time>2017-04-10T19:53:03Z</time>
      </trkpt>
      <trkpt lat="44.52588" lon="1.23063">
        <ele>136</ele>
        <time>2017-04-10T19:55:03Z</time>
      </trkpt>
      <trkpt lat="44.52594" lon="1.23108">
        <ele>126</ele>
        <time>2017-04-10T19:57:03Z</time>
      </trkpt>
      <trkpt lat="44.52614" lon="1.23125">
        <ele>122</ele>
        <time>2017-04-10T19:59:03Z</time>
      </trkpt>
      <trkpt lat="44.52616" lon="1.2314">
        <ele>119</ele>
        <time>2017-04-10T20:01:03Z</time>
      </trkpt>
      <trkpt lat="44.52619" lon="1.23147">
        <ele>118</ele>
        <time>2017-04-10T20:03:03Z</time>
      </trkpt>
      <trkpt lat="44.52635" lon="1.23159">
        <ele>117</ele>
        <time>2017-04-10T20:05:03Z</time>
      </trkpt>
      <trkpt lat="44.52633" lon="1.23189">
        <ele>115</ele>
        <time>2017-04-10T20:07:03Z</time>
      </trkpt>
      <trkpt lat="44.52627" lon="1.23204">
        <ele>114</ele>
        <time>2017-04-10T20:09:03Z</time>
      </trkpt>
      <trkpt lat="44.5262" lon="1.23217">
        <ele>113</ele>
        <time>2017-04-10T20:11:03Z</time>
      </trkpt>
      <trkpt lat="44.5256" lon="1.23434">
        <ele>116</ele>
        <time>2017-04-10T20:13:03Z</time>
      </trkpt>
      <trkpt lat="44.52569" lon="1.23451">
        <ele>118</ele>
        <time>2017-04-10T20:15:03Z</time>
      </trkpt>
      <trkpt lat="44.5265" lon="1.23491">
        <ele>117</ele>
        <time>2017-04-10T20:17:03Z</time>
      </trkpt>
      <trkpt lat="44.52713" lon="1.23523">
        <ele>118</ele>
        <time>2017-04-10T20:19:03Z</time>
      </trkpt>
      <trkpt lat="44.52839" lon="1.23591">
        <ele>118</ele>
        <time>2017-04-10T20:21:03Z</time>
      </trkpt>
      <trkpt lat="44.52863" lon="1.23606">
        <ele>119</ele>
        <time>2017-04-10T20:23:03Z</time>
      </trkpt>
      <trkpt lat="44.52882" lon="1.23623">
        <ele>120</ele>
        <time>2017-04-10T20:25:03Z</time>
      </trkpt>
      <trkpt lat="44.52923" lon="1.23657">
        <ele>119</ele>
        <time>2017-04-10T20:27:03Z</time>
      </trkpt>
      <trkpt lat="44.52954" lon="1.23676">
        <ele>118</ele>
        <time>2017-04-10T20:29:03Z</time>
      </trkpt>
      <trkpt lat="44.52972" lon="1.23689">
        <ele>118</ele>
        <time>2017-04-10T20:31:03Z</time>
      </trkpt>
      <trkpt lat="44.52986" lon="1.23706">
        <ele>117</ele>
        <time>2017-04-10T20:33:03Z</time>
      </trkpt>
      <trkpt lat="44.53005" lon="1.23741">
        <ele>117</ele>
        <time>2017-04-10T20:35:03Z</time>
      </trkpt>
      <trkpt lat="44.53014" lon="1.23752">
        <ele>117</ele>
        <time>2017-04-10T20:37:03Z</time>
      </trkpt>
      <trkpt lat="44.53017" lon="1.23759">
        <ele>118</ele>
        <time>2017-04-10T20:39:03Z</time>
      </trkpt>
      <trkpt lat="44.52994" lon="1.2382">
        <ele>122</ele>
        <time>2017-04-10T20:41:03Z</time>
      </trkpt>
      <trkpt lat="44.52988" lon="1.23843">
        <ele>124</ele>
        <time>2017-04-10T20:43:03Z</time>
      </trkpt>
      <trkpt lat="44.52986" lon="1.2386">
        <ele>125</ele>
        <time>2017-04-10T20:45:03Z</time>
      </trkpt>
      <trkpt lat="44.52987" lon="1.23884">
        <ele>126</ele>
        <time>2017-04-10T20:47:03Z</time>
      </trkpt>
      <trkpt lat="44.53002" lon="1.23916">
        <ele>128</ele>
        <time>2017-04-10T20:49:03Z</time>
      </trkpt>
      <trkpt lat="44.53029" lon="1.23955">
        <ele>132</ele>
        <time>2017-04-10T20:51:03Z</time>
      </trkpt>
      <trkpt lat="44.53055" lon="1.2399">
        <ele>134</ele>
        <time>2017-04-10T20:53:03Z</time>
      </trkpt>
      <trkpt lat="44.53067" lon="1.24008">
        <ele>134</ele>
        <time>2017-04-10T20:55:03Z</time>
      </trkpt>
      <trkpt lat="44.53078" lon="1.24045">
        <ele>133</ele>
        <time>2017-04-10T20:57:03Z</time>
      </trkpt>
      <trkpt lat="44.53091" lon="1.24063">
        <ele>133</ele>
        <time>2017-04-10T20:59:03Z</time>
      </trkpt>
      <trkpt lat="44.53111" lon="1.24078">
        <ele>132</ele>
        <time>2017-04-10T21:01:03Z</time>
      </trkpt>
      <trkpt lat="44.53154" lon="1.2409">
        <ele>130</ele>
        <time>2017-04-10T21:03:03Z</time>
      </trkpt>
      <trkpt lat="44.53195" lon="1.2411">
        <ele>134</ele>
        <time>2017-04-10T21:05:03Z</time>
      </trkpt>
      <trkpt lat="44.53199" lon="1.24121">
        <ele>134</ele>
        <time>2017-04-10T21:07:03Z</time>
      </trkpt>
      <trkpt lat="44.53201" lon="1.24128">
        <ele>134</ele>
        <time>2017-04-10T21:09:03Z</time>
      </trkpt>
      <trkpt lat="44.53204" lon="1.24135">
        <ele>134</ele>
        <time>2017-04-10T21:11:03Z</time>
      </trkpt>
      <trkpt lat="44.53211" lon="1.24143">
        <ele>134</ele>
        <time>2017-04-10T21:13:03Z</time>
      </trkpt>
      <trkpt lat="44.53219" lon="1.24148">
        <ele>134</ele>
        <time>2017-04-10T21:15:03Z</time>
      </trkpt>
      <trkpt lat="44.53263" lon="1.24181">
        <ele>136</ele>
        <time>2017-04-10T21:17:03Z</time>
      </trkpt>
      <trkpt lat="44.53288" lon="1.24211">
        <ele>138</ele>
        <time>2017-04-10T21:19:03Z</time>
      </trkpt>
      <trkpt lat="44.53302" lon="1.24232">
        <ele>138</ele>
        <time>2017-04-10T21:21:03Z</time>
      </trkpt>
      <trkpt lat="44.53317" lon="1.24268">
        <ele>137</ele>
        <time>2017-04-10T21:23:03Z</time>
      </trkpt>
      <trkpt lat="44.53328" lon="1.24304">
        <ele>135</ele>
        <time>2017-04-10T21:25:03Z</time>
      </trkpt>
      <trkpt lat="44.53389" lon="1.24437">
        <ele>139</ele>
        <time>2017-04-10T21:27:03Z</time>
      </trkpt>
      <trkpt lat="44.53396" lon="1.24453">
        <ele>138</ele>
        <time>2017-04-10T21:29:03Z</time>
      </trkpt>
      <trkpt lat="44.53405" lon="1.24462">
        <ele>138</ele>
        <time>2017-04-10T21:31:03Z</time>
      </trkpt>
      <trkpt lat="44.53414" lon="1.24463">
        <ele>137</ele>
        <time>2017-04-10T21:33:03Z</time>
      </trkpt>
      <trkpt lat="44.53445" lon="1.24458">
        <ele>141</ele>
        <time>2017-04-10T21:35:03Z</time>
      </trkpt>
      <trkpt lat="44.53457" lon="1.24462">
        <ele>143</ele>
        <time>2017-04-10T21:37:03Z</time>
      </trkpt>
      <trkpt lat="44.5347" lon="1.24477">
        <ele>144</ele>
        <time>2017-04-10T21:39:03Z</time>
      </trkpt>
      <trkpt lat="44.53485" lon="1.24488">
        <ele>145</ele>
        <time>2017-04-10T21:41:03Z</time>
      </trkpt>
      <trkpt lat="44.53501" lon="1.24492">
        <ele>147</ele>
        <time>2017-04-10T21:43:03Z</time>
      </trkpt>
      <trkpt lat="44.53521" lon="1.24495">
        <ele>147</ele>
        <time>2017-04-10T21:45:03Z</time>
      </trkpt>
      <trkpt lat="44.53536" lon="1.24485">
        <ele>148</ele>
        <time>2017-04-10T21:47:03Z</time>
      </trkpt>
      <trkpt lat="44.53558" lon="1.24472">
        <ele>150</ele>
        <time>2017-04-10T21:49:03Z</time>
      </trkpt>
      <trkpt lat="44.53584" lon="1.24442">
        <ele>152</ele>
        <time>2017-04-10T21:51:03Z</time>
      </trkpt>
      <trkpt lat="44.53584" lon="1.24419">
        <ele>153</ele>
        <time>2017-04-10T21:53:03Z</time>
      </trkpt>
      <trkpt lat="44.53578" lon="1.2436">
        <ele>157</ele>
        <time>2017-04-10T21:55:03Z</time>
      </trkpt>
      <trkpt lat="44.53587" lon="1.24334">
        <ele>158</ele>
        <time>2017-04-10T21:57:03Z</time>
      </trkpt>
      <trkpt lat="44.53603" lon="1.24325">
        <ele>158</ele>
        <time>2017-04-10T21:59:03Z</time>
      </trkpt>
      <trkpt lat="44.53606" lon="1.24321">
        <ele>158</ele>
        <time>2017-04-10T22:01:03Z</time>
      </trkpt>
      <trkpt lat="44.53602" lon="1.2432">
        <ele>159</ele>
        <time>2017-04-10T22:03:03Z</time>
      </trkpt>
      <trkpt lat="44.5359" lon="1.24321">
        <ele>159</ele>
        <time>2017-04-10T22:05:03Z</time>
      </trkpt>
      <trkpt lat="44.53563" lon="1.24334">
        <ele>159</ele>
        <time>2017-04-10T22:07:03Z</time>
      </trkpt>
      <trkpt lat="44.53548" lon="1.2433">
        <ele>161</ele>
        <time>2017-04-10T22:09:03Z</time>
      </trkpt>
      <trkpt lat="44.53529" lon="1.24311">
        <ele>164</ele>
        <time>2017-04-10T22:11:03Z</time>
      </trkpt>
      <trkpt lat="44.53506" lon="1.24293">
        <ele>167</ele>
        <time>2017-04-10T22:13:03Z</time>
      </trkpt>
      <trkpt lat="44.53499" lon="1.24287">
        <ele>168</ele>
        <time>2017-04-10T22:15:03Z</time>
      </trkpt>
      <trkpt lat="44.53487" lon="1.24275">
        <ele>167</ele>
        <time>2017-04-10T22:17:03Z</time>
      </trkpt>
      <trkpt lat="44.53479" lon="1.24264">
        <ele>166</ele>
        <time>2017-04-10T22:19:03Z</time>
      </trkpt>
      <trkpt lat="44.53474" lon="1.24255">
        <ele>166</ele>
        <time>2017-04-10T22:21:03Z</time>
      </trkpt>
      <trkpt lat="44.5347" lon="1.24241">
        <ele>166</ele>
        <time>2017-04-10T22:23:03Z</time>
      </trkpt>
      <trkpt lat="44.53472" lon="1.24231">
        <ele>167</ele>
        <time>2017-04-10T22:25:03Z</time>
      </trkpt>
      <trkpt lat="44.53473" lon="1.24227">
        <ele>167</ele>
        <time>2017-04-10T22:27:03Z</time>
      </trkpt>
      <trkpt lat="44.53506" lon="1.24208">
        <ele>172</ele>
        <time>2017-04-10T22:29:03Z</time>
      </trkpt>
      <trkpt lat="44.53541" lon="1.24174">
        <ele>173</ele>
        <time>2017-04-10T22:31:03Z</time>
      </trkpt>
      <trkpt lat="44.5359" lon="1.24073">
        <ele>179</ele>
        <time>2017-04-10T22:33:03Z</time>
      </trkpt>
      <trkpt lat="44.53613" lon="1.23988">
        <ele>180</ele>
        <time>2017-04-10T22:35:03Z</time>
      </trkpt>
      <trkpt lat="44.53641" lon="1.23938">
        <ele>173</ele>
        <time>2017-04-10T22:37:03Z</time>
      </trkpt>
      <trkpt lat="44.5367" lon="1.23895">
        <ele>166</ele>
        <time>2017-04-10T22:39:03Z</time>
      </trkpt>
      <trkpt lat="44.53695" lon="1.23856">
        <ele>160</ele>
        <time>2017-04-10T22:41:03Z</time>
      </trkpt>
      <trkpt lat="44.53719" lon="1.2383">
        <ele>157</ele>
        <time>2017-04-10T22:43:03Z</time>
      </trkpt>
      <trkpt lat="44.53735" lon="1.23807">
        <ele>154</ele>
        <time>2017-04-10T22:45:03Z</time>
      </trkpt>
      <trkpt lat="44.5374" lon="1.2376">
        <ele>146</ele>
        <time>2017-04-10T22:47:03Z</time>
      </trkpt>
      <trkpt lat="44.53744" lon="1.23714">
        <ele>139</ele>
        <time>2017-04-10T22:49:03Z</time>
      </trkpt>
      <trkpt lat="44.53744" lon="1.23685">
        <ele>135</ele>
        <time>2017-04-10T22:51:03Z</time>
      </trkpt>
      <trkpt lat="44.53734" lon="1.23663">
        <ele>131</ele>
        <time>2017-04-10T22:53:03Z</time>
      </trkpt>
      <trkpt lat="44.53732" lon="1.23644">
        <ele>129</ele>
        <time>2017-04-10T22:55:03Z</time>
      </trkpt>
      <trkpt lat="44.53728" lon="1.23626">
        <ele>127</ele>
        <time>2017-04-10T22:57:03Z</time>
      </trkpt>
      <trkpt lat="44.5373" lon="1.23606">
        <ele>125</ele>
        <time>2017-04-10T22:59:03Z</time>
      </trkpt>
      <trkpt lat="44.53754" lon="1.2358">
        <ele>123</ele>
        <time>2017-04-10T23:01:03Z</time>
      </trkpt>
      <trkpt lat="44.53767" lon="1.23554">
        <ele>121</ele>
        <time>2017-04-10T23:03:03Z</time>
      </trkpt>
    </trkseg>
  </trk>
</gpx>